Time,TemperatureF,DewpointF,PressureIn,WindDirection,WindDirectionDegrees,WindSpeedMPH,WindSpeedGustMPH,Humidity,HourlyPrecipIn,Conditions,Clouds,dailyrainin,SoftwareType,DateUTC
2013-07-10 00:02:00,80.0,74.0,29.83,East,96,0.0,-999.0,83,-99.99,,,-99.99,,2013-07-10 05:02:00,
2013-07-10 00:11:00,79.0,74.0,29.83,East,100,0.0,-999.0,84,-99.99,,,-99.99,,2013-07-10 05:11:00,
2013-07-10 00:22:00,79.0,74.0,29.84,East,100,0.0,-999.0,84,-99.99,,,-99.99,,2013-07-10 05:22:00,
2013-07-10 00:32:00,79.0,74.0,29.84,East,100,0.0,-999.0,84,-99.99,,,-99.99,,2013-07-10 05:32:00,
2013-07-10 00:42:00,79.0,74.0,29.83,East,100,0.0,-999.0,85,-99.99,,,-99.99,,2013-07-10 05:42:00,
2013-07-10 00:52:00,79.0,74.0,29.83,SSE,165,1.0,-999.0,85,-99.99,,,-99.99,,2013-07-10 05:52:00,
2013-07-10 01:01:00,79.0,74.0,29.83,SSE,165,1.0,-999.0,85,-99.99,,,-99.99,,2013-07-10 06:01:00,
2013-07-10 01:11:00,83.0,72.0,29.82,South,180,3.0,-999.0,70,-99.99,,,-99.99,,2013-07-10 06:11:00,
2013-07-10 01:21:00,83.0,72.0,29.82,South,180,3.0,-999.0,70,-99.99,,,-99.99,,2013-07-10 06:21:00,
2013-07-10 01:32:00,83.0,72.0,29.82,South,180,3.0,-999.0,70,-99.99,,,-99.99,,2013-07-10 06:32:00,
2013-07-10 01:42:00,85.0,71.0,29.86,NW,306,0.0,-999.0,63,-99.99,,,-99.99,,2013-07-10 06:42:00,
2013-07-10 01:52:00,84.0,69.0,29.85,ESE,102,2.0,-999.0,60,-99.99,,,-99.99,,2013-07-10 06:52:00,
2013-07-10 02:01:00,84.0,69.0,29.85,ESE,102,2.0,-999.0,60,-99.99,,,-99.99,,2013-07-10 07:01:00,
2013-07-10 02:11:00,81.0,69.0,29.85,NW,309,2.0,-999.0,67,-99.99,,,-99.99,,2013-07-10 07:11:00,
2013-07-10 02:22:00,80.0,69.0,29.86,North,355,0.0,-999.0,70,-99.99,,,-99.99,,2013-07-10 07:22:00,
2013-07-10 02:33:00,80.0,69.0,29.86,North,355,0.0,-999.0,70,-99.99,,,-99.99,,2013-07-10 07:33:00,
2013-07-10 02:43:00,79.0,70.0,29.90,SSW,211,0.0,-999.0,73,-99.99,,,-99.99,,2013-07-10 07:43:00,
2013-07-10 02:53:00,78.0,69.0,29.90,SSW,198,0.0,-999.0,74,-99.99,,,-99.99,,2013-07-10 07:53:00,
2013-07-10 03:01:00,78.0,69.0,29.90,SSW,198,0.0,-999.0,74,-99.99,,,-99.99,,2013-07-10 08:01:00,
2013-07-10 03:11:00,77.0,68.0,29.90,SSW,197,0.0,-999.0,74,-99.99,,,-99.99,,2013-07-10 08:11:00,
2013-07-10 03:22:00,78.0,68.0,29.90,West,265,0.0,-999.0,72,-99.99,,,-99.99,,2013-07-10 08:22:00,
2013-07-10 03:33:00,78.0,68.0,29.90,West,265,0.0,-999.0,72,-99.99,,,-99.99,,2013-07-10 08:33:00,
2013-07-10 03:42:00,78.0,69.0,29.90,West,265,0.0,-999.0,73,-99.99,,,-99.99,,2013-07-10 08:42:00,
2013-07-10 03:53:00,77.0,68.0,29.89,West,271,0.0,-999.0,75,-99.99,,,-99.99,,2013-07-10 08:53:00,
2013-07-10 04:02:00,77.0,68.0,29.89,West,271,0.0,-999.0,75,-99.99,,,-99.99,,2013-07-10 09:02:00,
2013-07-10 04:12:00,76.0,69.0,29.89,NNW,348,0.0,-999.0,78,-99.99,,,-99.99,,2013-07-10 09:12:00,
2013-07-10 04:22:00,76.0,69.0,29.88,NNW,337,1.0,-999.0,79,-99.99,,,-99.99,,2013-07-10 09:22:00,
2013-07-10 04:32:00,76.0,69.0,29.88,NNW,337,1.0,-999.0,79,-99.99,,,-99.99,,2013-07-10 09:32:00,
2013-07-10 04:42:00,75.0,69.0,29.88,ENE,71,0.0,-999.0,81,-99.99,,,-99.99,,2013-07-10 09:42:00,
2013-07-10 04:52:00,75.0,69.0,29.87,ENE,69,0.0,-999.0,82,-99.99,,,-99.99,,2013-07-10 09:52:00,
2013-07-10 05:01:00,75.0,69.0,29.87,ENE,69,0.0,-999.0,82,-99.99,,,-99.99,,2013-07-10 10:01:00,
2013-07-10 05:13:00,74.0,69.0,29.86,NNW,331,0.0,-999.0,84,-99.99,,,-99.99,,2013-07-10 10:13:00,
2013-07-10 05:23:00,75.0,71.0,29.85,NNW,341,0.0,-999.0,87,-99.99,,,-99.99,,2013-07-10 10:23:00,
2013-07-10 05:32:00,75.0,71.0,29.85,NNW,341,0.0,-999.0,87,-99.99,,,-99.99,,2013-07-10 10:32:00,
2013-07-10 05:50:00,-999.0,-99.9,29.86,NE,55,0.0,-999.0,-999,-99.99,,,-99.99,,2013-07-10 10:50:00,
2013-07-10 06:00:00,-999.0,-99.9,29.87,NE,36,0.0,-999.0,-999,-99.99,,,-99.99,,2013-07-10 11:00:00,
2013-07-10 06:11:00,76.0,72.0,29.86,East,96,0.0,-999.0,88,-99.99,,,-99.99,,2013-07-10 11:11:00,
2013-07-10 06:22:00,76.0,72.0,29.86,North,11,0.0,-999.0,88,-99.99,,,-99.99,,2013-07-10 11:22:00,
2013-07-10 06:33:00,76.0,72.0,29.86,North,11,0.0,-999.0,88,-99.99,,,-99.99,,2013-07-10 11:33:00,
2013-07-10 06:43:00,76.0,72.0,29.88,North,11,0.0,-999.0,87,-99.99,,,-99.99,,2013-07-10 11:43:00,
2013-07-10 06:52:00,76.0,72.0,29.88,North,11,0.0,-999.0,88,-99.99,,,-99.99,,2013-07-10 11:52:00,
2013-07-10 07:01:00,76.0,72.0,29.88,North,11,0.0,-999.0,88,-99.99,,,-99.99,,2013-07-10 12:01:00,
2013-07-10 07:11:00,76.0,72.0,29.90,North,11,0.0,-999.0,88,-99.99,,,-99.99,,2013-07-10 12:11:00,
2013-07-10 07:22:00,76.0,72.0,29.90,North,11,0.0,-999.0,87,-99.99,,,-99.99,,2013-07-10 12:22:00,
2013-07-10 07:33:00,76.0,72.0,29.90,North,11,0.0,-999.0,87,-99.99,,,-99.99,,2013-07-10 12:33:00,
2013-07-10 07:43:00,76.0,72.0,29.91,North,11,0.0,-999.0,86,-99.99,,,-99.99,,2013-07-10 12:43:00,
2013-07-10 07:52:00,77.0,72.0,29.92,North,11,0.0,-999.0,86,-99.99,,,-99.99,,2013-07-10 12:52:00,
2013-07-10 08:01:00,77.0,72.0,29.92,North,11,0.0,-999.0,86,-99.99,,,-99.99,,2013-07-10 13:01:00,
2013-07-10 08:11:00,77.0,72.0,29.92,North,11,0.0,-999.0,86,-99.99,,,-99.99,,2013-07-10 13:11:00,
2013-07-10 08:21:00,77.0,72.0,29.93,North,11,0.0,-999.0,85,-99.99,,,-99.99,,2013-07-10 13:21:00,
2013-07-10 08:32:00,77.0,72.0,29.93,North,11,0.0,-999.0,85,-99.99,,,-99.99,,2013-07-10 13:32:00,
2013-07-10 08:43:00,79.0,73.0,29.93,North,11,0.0,-999.0,83,-99.99,,,-99.99,,2013-07-10 13:43:00,
2013-07-10 08:52:00,81.0,72.0,29.94,North,11,0.0,-999.0,75,-99.99,,,-99.99,,2013-07-10 13:52:00,
2013-07-10 09:01:00,81.0,72.0,29.94,North,11,0.0,-999.0,75,-99.99,,,-99.99,,2013-07-10 14:01:00,
2013-07-10 09:11:00,82.0,73.0,29.95,North,11,0.0,-999.0,74,-99.99,,,-99.99,,2013-07-10 14:11:00,
2013-07-10 09:22:00,83.0,73.0,29.95,North,11,0.0,-999.0,73,-99.99,,,-99.99,,2013-07-10 14:22:00,
2013-07-10 09:33:00,83.0,73.0,29.95,North,11,0.0,-999.0,73,-99.99,,,-99.99,,2013-07-10 14:33:00,
2013-07-10 09:43:00,83.0,73.0,29.95,North,11,0.0,-999.0,72,-99.99,,,-99.99,,2013-07-10 14:43:00,
2013-07-10 09:53:00,84.0,74.0,29.96,North,11,0.0,-999.0,71,-99.99,,,-99.99,,2013-07-10 14:53:00,
2013-07-10 10:01:00,84.0,74.0,29.96,North,11,0.0,-999.0,71,-99.99,,,-99.99,,2013-07-10 15:01:00,
2013-07-10 10:11:00,84.0,74.0,29.97,North,11,0.0,-999.0,71,-99.99,,,-99.99,,2013-07-10 15:11:00,
2013-07-10 10:22:00,85.0,73.0,29.97,North,11,0.0,-999.0,68,-99.99,,,-99.99,,2013-07-10 15:22:00,
2013-07-10 10:34:00,85.0,73.0,29.97,North,11,0.0,-999.0,68,-99.99,,,-99.99,,2013-07-10 15:34:00,
2013-07-10 10:42:00,85.0,73.0,29.98,North,11,0.0,-999.0,67,-99.99,,,-99.99,,2013-07-10 15:42:00,
2013-07-10 10:52:00,85.0,73.0,29.98,SE,134,0.0,-999.0,67,-99.99,,,-99.99,,2013-07-10 15:52:00,
2013-07-10 11:01:00,85.0,73.0,29.98,SE,134,0.0,-999.0,67,-99.99,,,-99.99,,2013-07-10 16:01:00,
2013-07-10 11:11:00,85.0,71.0,29.99,ESE,105,0.0,-999.0,64,-99.99,,,-99.99,,2013-07-10 16:11:00,
2013-07-10 11:22:00,86.0,72.0,29.99,SE,142,0.0,-999.0,63,-99.99,,,-99.99,,2013-07-10 16:22:00,
2013-07-10 11:33:00,86.0,72.0,29.99,SE,142,0.0,-999.0,63,-99.99,,,-99.99,,2013-07-10 16:33:00,
2013-07-10 11:44:00,87.0,72.0,29.99,East,101,0.0,-999.0,62,-99.99,,,-99.99,,2013-07-10 16:44:00,
2013-07-10 11:53:00,87.0,71.0,30.00,ESE,117,0.0,-999.0,60,-99.99,,,-99.99,,2013-07-10 16:53:00,
2013-07-10 12:02:00,87.0,71.0,30.00,ESE,117,0.0,-999.0,60,-99.99,,,-99.99,,2013-07-10 17:02:00,
2013-07-10 12:11:00,87.0,71.0,30.00,SSE,162,0.0,-999.0,60,-99.99,,,-99.99,,2013-07-10 17:11:00,
2013-07-10 12:23:00,87.0,71.0,30.00,SSE,161,0.0,-999.0,59,-99.99,,,-99.99,,2013-07-10 17:23:00,
2013-07-10 12:32:00,87.0,71.0,30.00,SSE,161,0.0,-999.0,59,-99.99,,,-99.99,,2013-07-10 17:32:00,
2013-07-10 12:43:00,87.0,69.0,30.00,SSE,161,0.0,-999.0,56,-99.99,,,-99.99,,2013-07-10 17:43:00,
2013-07-10 12:52:00,88.0,70.0,30.00,SSE,167,1.0,-999.0,56,-99.99,,,-99.99,,2013-07-10 17:52:00,
2013-07-10 13:02:00,88.0,70.0,30.00,SSE,167,1.0,-999.0,56,-99.99,,,-99.99,,2013-07-10 18:02:00,
2013-07-10 13:11:00,88.0,69.0,29.99,SSE,157,0.0,-999.0,54,-99.99,,,-99.99,,2013-07-10 18:11:00,
2013-07-10 13:21:00,88.0,69.0,29.99,SSE,157,0.0,-999.0,54,-99.99,,,-99.99,,2013-07-10 18:21:00,
2013-07-10 13:32:00,88.0,69.0,29.99,SSE,157,0.0,-999.0,54,-99.99,,,-99.99,,2013-07-10 18:32:00,
2013-07-10 13:44:00,89.0,69.0,29.98,SSE,155,0.0,-999.0,52,-99.99,,,-99.99,,2013-07-10 18:44:00,
2013-07-10 13:52:00,90.0,69.0,29.98,SSE,155,0.0,-999.0,51,-99.99,,,-99.99,,2013-07-10 18:52:00,
2013-07-10 14:01:00,90.0,69.0,29.98,SSE,155,0.0,-999.0,51,-99.99,,,-99.99,,2013-07-10 19:01:00,
2013-07-10 14:11:00,90.0,71.0,29.98,SSE,161,0.0,-999.0,54,-99.99,,,-99.99,,2013-07-10 19:11:00,
2013-07-10 14:21:00,90.0,68.0,29.98,SSE,161,0.0,-999.0,48,-99.99,,,-99.99,,2013-07-10 19:21:00,
2013-07-10 14:32:00,90.0,68.0,29.98,SSE,161,0.0,-999.0,48,-99.99,,,-99.99,,2013-07-10 19:32:00,
2013-07-10 14:42:00,91.0,70.0,29.97,SSE,161,0.0,-999.0,50,-99.99,,,-99.99,,2013-07-10 19:42:00,
2013-07-10 14:52:00,91.0,68.0,29.97,SSE,159,0.0,-999.0,47,-99.99,,,-99.99,,2013-07-10 19:52:00,
2013-07-10 15:01:00,91.0,68.0,29.97,SSE,159,0.0,-999.0,47,-99.99,,,-99.99,,2013-07-10 20:01:00,
2013-07-10 15:11:00,90.0,67.0,29.98,NE,45,0.0,-999.0,47,-99.99,,,-99.99,,2013-07-10 20:11:00,
2013-07-10 15:22:00,90.0,67.0,29.98,NNE,17,0.0,-999.0,47,-99.99,,,-99.99,,2013-07-10 20:22:00,
2013-07-10 15:32:00,90.0,67.0,29.98,NNE,17,0.0,-999.0,47,-99.99,,,-99.99,,2013-07-10 20:32:00,
2013-07-10 15:43:00,91.0,67.0,29.98,NNW,337,0.0,-999.0,46,-99.99,,,-99.99,,2013-07-10 20:43:00,
2013-07-10 15:52:00,89.0,68.0,29.97,NNW,338,0.0,-999.0,51,-99.99,,,-99.99,,2013-07-10 20:52:00,
2013-07-10 16:01:00,89.0,68.0,29.97,NNW,338,0.0,-999.0,51,-99.99,,,-99.99,,2013-07-10 21:01:00,
2013-07-10 16:11:00,90.0,68.0,29.97,NNW,337,0.0,-999.0,49,-99.99,,,-99.99,,2013-07-10 21:11:00,
2013-07-10 16:22:00,89.0,70.0,29.96,NNW,339,0.0,-999.0,53,-99.99,,,-99.99,,2013-07-10 21:22:00,
2013-07-10 16:32:00,89.0,70.0,29.96,NNW,339,0.0,-999.0,53,-99.99,,,-99.99,,2013-07-10 21:32:00,
2013-07-10 16:41:00,90.0,68.0,29.96,NNW,338,0.0,-999.0,49,-99.99,,,-99.99,,2013-07-10 21:41:00,
2013-07-10 16:52:00,88.0,66.0,29.97,NNW,338,0.0,-999.0,49,-99.99,,,-99.99,,2013-07-10 21:52:00,
2013-07-10 17:01:00,88.0,66.0,29.97,NNW,338,0.0,-999.0,49,-99.99,,,-99.99,,2013-07-10 22:01:00,
2013-07-10 17:11:00,89.0,69.0,29.95,NNW,338,0.0,-999.0,52,-99.99,,,-99.99,,2013-07-10 22:11:00,
2013-07-10 17:21:00,90.0,67.0,29.95,NNW,338,0.0,-999.0,47,-99.99,,,-99.99,,2013-07-10 22:21:00,
2013-07-10 17:33:00,90.0,67.0,29.95,NNW,338,0.0,-999.0,47,-99.99,,,-99.99,,2013-07-10 22:33:00,
2013-07-10 17:42:00,90.0,69.0,29.95,NNW,338,0.0,-999.0,50,-99.99,,,-99.99,,2013-07-10 22:42:00,
2013-07-10 17:53:00,90.0,69.0,29.94,NNW,338,0.0,-999.0,51,-99.99,,,-99.99,,2013-07-10 22:53:00,
2013-07-10 18:01:00,90.0,69.0,29.94,NNW,338,0.0,-999.0,51,-99.99,,,-99.99,,2013-07-10 23:01:00,
2013-07-10 18:11:00,89.0,67.0,29.93,NNW,338,0.0,-999.0,49,-99.99,,,-99.99,,2013-07-10 23:11:00,
2013-07-10 18:22:00,89.0,68.0,29.92,NNW,338,0.0,-999.0,50,-99.99,,,-99.99,,2013-07-10 23:22:00,
2013-07-10 18:32:00,89.0,68.0,29.92,NNW,338,0.0,-999.0,50,-99.99,,,-99.99,,2013-07-10 23:32:00,
2013-07-10 18:43:00,89.0,68.0,29.92,NNW,338,0.0,-999.0,50,-99.99,,,-99.99,,2013-07-10 23:43:00,
2013-07-10 18:52:00,89.0,68.0,29.92,NNW,338,0.0,-999.0,50,-99.99,,,-99.99,,2013-07-10 23:52:00,
2013-07-10 19:01:00,89.0,68.0,29.92,NNW,338,0.0,-999.0,50,-99.99,,,-99.99,,2013-07-11 00:01:00,
2013-07-10 19:11:00,88.0,69.0,29.92,NNW,338,0.0,-999.0,53,-99.99,,,-99.99,,2013-07-11 00:11:00,
2013-07-10 19:22:00,88.0,68.0,29.92,NNW,338,0.0,-999.0,52,-99.99,,,-99.99,,2013-07-11 00:22:00,
2013-07-10 19:32:00,88.0,68.0,29.92,NNW,338,0.0,-999.0,52,-99.99,,,-99.99,,2013-07-11 00:32:00,
2013-07-10 19:42:00,88.0,69.0,29.92,NNW,338,0.0,-999.0,53,-99.99,,,-99.99,,2013-07-11 00:42:00,
2013-07-10 19:52:00,88.0,69.0,29.92,NNW,338,0.0,-999.0,53,-99.99,,,-99.99,,2013-07-11 00:52:00,
2013-07-10 20:01:00,86.0,67.0,29.92,NNW,338,0.0,-999.0,54,-99.99,,,-99.99,,2013-07-11 01:01:00,
2013-07-10 20:11:00,86.0,67.0,29.92,NNW,338,0.0,-999.0,54,-99.99,,,-99.99,,2013-07-11 01:11:00,
2013-07-10 20:22:00,84.0,68.0,29.92,WNW,293,0.0,-999.0,59,-99.99,,,-99.99,,2013-07-11 01:22:00,
2013-07-10 20:32:00,84.0,68.0,29.92,WNW,293,0.0,-999.0,59,-99.99,,,-99.99,,2013-07-11 01:32:00,
2013-07-10 20:43:00,80.0,68.0,29.93,WNW,293,0.0,-999.0,67,-99.99,,,-99.99,,2013-07-11 01:43:00,
2013-07-10 20:52:00,78.0,67.0,29.93,WNW,293,0.0,-999.0,70,-99.99,,,-99.99,,2013-07-11 01:52:00,
2013-07-10 21:02:00,78.0,67.0,29.93,WNW,293,0.0,-999.0,70,-99.99,,,-99.99,,2013-07-11 02:02:00,
2013-07-10 21:11:00,77.0,67.0,29.93,WNW,293,0.0,-999.0,71,-99.99,,,-99.99,,2013-07-11 02:11:00,
2013-07-10 21:32:00,76.0,67.0,29.93,WNW,293,0.0,-999.0,74,-99.99,,,-99.99,,2013-07-11 02:32:00,
2013-07-10 21:43:00,75.0,67.0,29.93,WNW,293,0.0,-999.0,76,-99.99,,,-99.99,,2013-07-11 02:43:00,
2013-07-10 22:01:00,74.0,67.0,29.94,WNW,293,0.0,-999.0,78,-99.99,,,-99.99,,2013-07-11 03:01:00,
2013-07-10 22:11:00,73.0,66.0,29.95,WNW,293,0.0,-999.0,79,-99.99,,,-99.99,,2013-07-11 03:11:00,
2013-07-10 22:21:00,72.0,65.0,29.96,WNW,293,0.0,-999.0,80,-99.99,,,-99.99,,2013-07-11 03:21:00,
2013-07-10 22:33:00,72.0,65.0,29.96,WNW,293,0.0,-999.0,80,-99.99,,,-99.99,,2013-07-11 03:33:00,
2013-07-10 22:42:00,72.0,66.0,29.97,WNW,293,0.0,-999.0,82,-99.99,,,-99.99,,2013-07-11 03:42:00,
2013-07-10 22:52:00,71.0,66.0,29.97,WNW,293,0.0,-999.0,83,-99.99,,,-99.99,,2013-07-11 03:52:00,
2013-07-10 23:01:00,71.0,66.0,29.97,WNW,293,0.0,-999.0,83,-99.99,,,-99.99,,2013-07-11 04:01:00,
2013-07-10 23:12:00,71.0,66.0,29.97,WNW,293,0.0,-999.0,84,-99.99,,,-99.99,,2013-07-11 04:12:00,
2013-07-10 23:22:00,71.0,66.0,29.97,WNW,294,0.0,-999.0,84,-99.99,,,-99.99,,2013-07-11 04:22:00,
2013-07-10 23:32:00,71.0,66.0,29.97,WNW,294,0.0,-999.0,84,-99.99,,,-99.99,,2013-07-11 04:32:00,
2013-07-10 23:42:00,71.0,66.0,29.98,NW,318,0.0,-999.0,85,-99.99,,,-99.99,,2013-07-11 04:42:00,
2013-07-10 23:53:00,70.0,65.0,29.98,NW,323,0.0,-999.0,85,-99.99,,,-99.99,,2013-07-11 04:53:00,